Time;durP1;ratioP1;P1;durP2;ratioP2;P2;SDS_P1;SDS_P2;PMS_P1;PMS_P2;Temp;Humidity;BMP_temperature;BMP_pressure;BME280_temperature;BME280_humidity;BME280_pressure;Samples;Min_cycle;Max_cycle;Signal;HPM_P1;HPM_P2
2021/09/07 00:01:15;;;;;;;;;16.00;12.50;;;;;25.10;43.08;101620.13;5079601;27;45571;-57
2021/09/07 00:03:41;;;;;;;;;10.25;10.25;;;;;25.07;43.26;101623.94;5080267;27;45403;-57
2021/09/07 00:06:06;;;;;;;;;13.25;12.00;;;;;25.02;42.91;101620.63;5080359;27;45565;-57
2021/09/07 00:08:32;;;;;;;;;15.50;13.00;;;;;24.97;43.33;101625.47;5079637;27;46878;-57
2021/09/07 00:10:57;;;;;;;;;12.25;11.25;;;;;24.94;43.45;101622.97;5076811;27;45405;-57
2021/09/07 00:13:23;;;;;;;;;14.00;14.00;;;;;24.89;43.56;101620.56;5061218;28;45562;-57
2021/09/07 00:15:49;;;;;;;;;13.00;11.25;;;;;24.86;43.33;101622.63;5061351;28;45388;-57
2021/09/07 00:18:14;;;;;;;;;12.50;12.50;;;;;24.83;43.55;101621.00;5082784;27;46861;-57
2021/09/07 00:20:40;;;;;;;;;12.25;12.00;;;;;24.81;43.36;101628.38;5079636;28;45435;-57
2021/09/07 00:23:05;;;;;;;;;17.50;14.75;;;;;24.77;43.50;101620.50;5079228;28;45581;-57
2021/09/07 00:25:31;;;;;;;;;10.00;10.00;;;;;24.72;43.61;101631.69;5062072;28;45400;-58
2021/09/07 00:27:56;;;;;;;;;12.00;11.75;;;;;24.70;43.92;101624.63;5080052;27;48196;-58
2021/09/07 00:30:22;;;;;;;;;13.00;12.25;;;;;24.69;43.69;101628.31;5084326;27;45903;-57
2021/09/07 00:32:47;;;;;;;;;13.75;12.50;;;;;24.63;43.85;101622.31;5084581;27;45392;-57
2021/09/07 00:35:13;;;;;;;;;14.00;12.75;;;;;24.62;43.91;101627.84;5079915;27;45389;-57
2021/09/07 00:37:40;;;;;;;;;11.25;11.25;;;;;24.61;44.15;101623.38;5061631;27;47497;-57
2021/09/07 00:40:06;;;;;;;;;13.00;13.00;;;;;24.60;43.97;101622.50;5072777;28;45369;-57
2021/09/07 00:42:34;;;;;;;;;16.50;14.75;;;;;24.58;44.07;101615.44;5074326;27;45357;-57
2021/09/07 00:45:01;;;;;;;;;13.75;13.75;;;;;24.54;44.16;101616.63;5079471;28;45325;-57
2021/09/07 00:47:27;;;;;;;;;15.50;15.50;;;;;24.49;44.13;101611.50;5060750;28;48087;-57
2021/09/07 00:49:52;;;;;;;;;17.00;15.25;;;;;24.45;44.33;101617.22;5079268;27;45352;-57
2021/09/07 00:52:19;;;;;;;;;15.50;14.00;;;;;24.43;44.32;101606.47;5061204;27;45639;-57
2021/09/07 00:54:47;;;;;;;;;13.25;13.25;;;;;24.44;44.69;101612.78;5079389;27;45397;-57
2021/09/07 00:57:13;;;;;;;;;13.00;13.00;;;;;24.42;44.79;101604.75;5085382;27;47624;-57
2021/09/07 00:59:38;;;;;;;;;13.25;13.25;;;;;24.40;44.58;101600.41;5082419;27;45260;-57
2021/09/07 01:02:06;;;;;;;;;18.00;15.50;;;;;24.37;44.81;101593.31;5079143;27;45510;-56
2021/09/07 01:04:34;;;;;;;;;13.75;13.75;;;;;24.35;44.65;101601.53;5060823;28;45512;-57
2021/09/07 01:07:01;;;;;;;;;15.00;15.00;;;;;24.31;44.72;101594.59;5069413;28;48509;-57
2021/09/07 01:09:27;;;;;;;;;13.50;13.50;;;;;24.26;44.98;101599.38;5078787;27;45381;-57
2021/09/07 01:11:52;;;;;;;;;14.00;14.00;;;;;24.25;45.22;101589.50;5079260;28;45329;-57
2021/09/07 01:14:18;;;;;;;;;16.25;14.25;;;;;24.27;45.14;101582.19;5060405;28;45431;-58
2021/09/07 01:16:45;;;;;;;;;14.00;14.00;;;;;24.29;45.41;101585.66;5076959;27;47057;-57
2021/09/07 01:19:11;;;;;;;;;10.25;10.25;;;;;24.31;45.23;101581.03;5085017;27;45358;-57
2021/09/07 01:21:36;;;;;;;;;12.00;11.25;;;;;24.34;45.46;101582.66;5079117;28;45444;-57
2021/09/07 01:24:02;;;;;;;;;13.75;11.50;;;;;24.36;45.37;101584.28;5079197;27;45350;-57
2021/09/07 01:26:28;;;;;;;;;9.75;9.75;;;;;24.41;45.03;101583.16;5079464;27;46104;-57
2021/09/07 01:28:53;;;;;;;;;10.75;10.75;;;;;24.41;45.29;101586.72;5078896;27;45854;-57
2021/09/07 01:31:19;;;;;;;;;10.50;10.50;;;;;24.44;45.01;101588.34;5058385;27;45381;-57
2021/09/07 01:33:47;;;;;;;;;14.25;13.50;;;;;24.46;44.86;101581.84;5088287;27;45598;-57
2021/09/07 01:36:14;;;;;;;;;16.00;13.75;;;;;24.45;44.82;101569.25;5080319;27;48180;-57
2021/09/07 01:38:41;;;;;;;;;11.25;10.50;;;;;24.47;44.78;101577.28;5081792;27;45376;-57
2021/09/07 01:41:07;;;;;;;;;11.75;11.75;;;;;24.48;44.86;101570.88;5063958;28;45725;-57
2021/09/07 01:43:32;;;;;;;;;14.25;13.00;;;;;24.48;44.84;101568.19;5064006;27;45636;-57
2021/09/07 01:45:58;;;;;;;;;13.00;13.00;;;;;24.48;44.72;101569.06;5082012;27;48480;-57
2021/09/07 01:48:25;;;;;;;;;13.25;13.25;;;;;24.47;44.89;101567.31;5082303;27;45722;-57
2021/09/07 01:50:51;;;;;;;;;12.00;12.00;;;;;24.46;44.78;101560.16;5082275;27;45315;-56
2021/09/07 01:53:17;;;;;;;;;9.75;9.75;;;;;24.48;44.77;101565.47;5082252;27;45395;-57
2021/09/07 01:55:43;;;;;;;;;12.25;10.75;;;;;24.47;44.94;101558.31;5082069;27;46087;-57
2021/09/07 01:58:09;;;;;;;;;10.75;10.75;;;;;24.45;44.79;101558.41;5073915;28;45418;-57
2021/09/07 02:00:35;;;;;;;;;13.00;12.00;;;;;24.44;44.83;101559.38;5082373;27;45472;-57
2021/09/07 02:03:00;;;;;;;;;12.25;12.00;;;;;24.43;44.93;101563.06;5082014;27;45551;-57
2021/09/07 02:05:26;;;;;;;;;10.75;10.75;;;;;24.42;44.71;101568.59;5081538;27;47258;-59
2021/09/07 02:07:52;;;;;;;;;13.50;12.00;;;;;24.41;44.89;101561.44;5081529;27;45383;-57
2021/09/07 02:10:19;;;;;;;;;12.75;12.50;;;;;24.41;44.76;101575.88;5082205;27;45371;-57
2021/09/07 02:12:44;;;;;;;;;13.00;11.25;;;;;24.40;44.96;101567.84;5079206;27;45655;-57
2021/09/07 02:15:10;;;;;;;;;13.50;11.50;;;;;24.38;45.12;101567.91;5076180;27;48097;-57
2021/09/07 02:17:37;;;;;;;;;12.75;12.50;;;;;24.37;45.01;101577.03;5081684;27;45556;-57
2021/09/07 02:20:04;;;;;;;;;12.75;12.00;;;;;24.34;44.80;101561.81;5086478;27;45470;-57
2021/09/07 02:22:29;;;;;;;;;13.25;13.25;;;;;24.34;45.06;101566.38;5081910;27;45406;-57
2021/09/07 02:24:55;;;;;;;;;13.00;13.00;;;;;24.34;45.15;101564.53;5081291;27;48059;-56
2021/09/07 02:27:21;;;;;;;;;13.75;12.75;;;;;24.34;44.96;101563.66;5081621;27;45497;-56
2021/09/07 02:29:47;;;;;;;;;12.00;12.00;;;;;24.32;45.09;101558.34;5088686;27;45372;-56
2021/09/07 02:32:13;;;;;;;;;10.75;10.25;;;;;24.33;45.38;101556.50;5070745;27;45481;-56
2021/09/07 02:34:39;;;;;;;;;13.00;13.00;;;;;24.32;45.11;101562.91;5088218;27;48477;-56
2021/09/07 02:37:05;;;;;;;;;11.00;11.00;;;;;24.29;45.46;101553.09;5081420;27;45784;-56
2021/09/07 02:39:32;;;;;;;;;14.00;13.75;;;;;24.27;45.42;101551.47;5063792;27;46190;-56
2021/09/07 02:41:57;;;;;;;;;13.25;12.25;;;;;24.25;45.29;101542.53;5063230;27;45429;-56
2021/09/07 02:44:23;;;;;;;;;13.75;12.25;;;;;24.23;45.30;101539.91;5081353;27;45687;-56
2021/09/07 02:46:48;;;;;;;;;13.50;13.50;;;;;24.21;45.51;101536.44;5080892;27;45417;-56
2021/09/07 02:49:14;;;;;;;;;13.50;13.50;;;;;24.20;45.59;101534.72;5081242;27;45635;-57
2021/09/07 02:51:43;;;;;;;;;14.50;13.25;;;;;24.21;45.51;101536.44;5081714;27;45685;-56
2021/09/07 02:54:09;;;;;;;;;11.00;11.00;;;;;24.21;45.72;101532.88;5081445;27;45493;-56
2021/09/07 02:56:35;;;;;;;;;12.50;12.50;;;;;24.21;45.28;101524.72;5081716;27;45464;-57
2021/09/07 02:59:01;;;;;;;;;12.50;12.25;;;;;24.22;45.53;101529.19;5089907;27;45453;-56
2021/09/07 03:01:26;;;;;;;;;12.50;11.50;;;;;24.21;45.77;101524.72;5081113;27;45437;-56
2021/09/07 03:03:51;;;;;;;;;12.00;12.00;;;;;24.21;45.58;101522.03;5081026;27;45378;-57
2021/09/07 03:06:17;;;;;;;;;14.50;13.75;;;;;24.20;45.60;101526.56;5081076;27;45443;-57
2021/09/07 03:08:42;;;;;;;;;14.00;12.50;;;;;24.19;45.66;101527.53;5080950;27;45409;-56
2021/09/07 03:11:08;;;;;;;;;14.25;14.25;;;;;24.18;45.81;101514.97;5081376;27;45278;-58
2021/09/07 03:13:34;;;;;;;;;14.25;14.25;;;;;24.17;45.88;101515.94;5081203;27;48627;-56
2021/09/07 03:15:59;;;;;;;;;15.50;13.00;;;;;24.16;45.44;101514.19;5063010;27;45355;-56
2021/09/07 03:18:25;;;;;;;;;12.75;12.75;;;;;24.14;45.64;101509.81;5068033;27;45319;-57
2021/09/07 03:20:51;;;;;;;;;11.00;11.00;;;;;24.11;45.55;101516.31;5082740;27;45381;-57
2021/09/07 03:23:16;;;;;;;;;14.00;12.75;;;;;24.10;46.22;101520.00;5045815;28;47784;-57
2021/09/07 03:25:42;;;;;;;;;12.75;12.75;;;;;24.10;45.67;101519.13;5080706;27;45531;-56
2021/09/07 03:28:07;;;;;;;;;13.75;13.75;;;;;24.08;45.81;101527.38;5080956;27;45351;-57
2021/09/07 03:30:33;;;;;;;;;13.75;13.25;;;;;24.07;45.73;101522.94;5089004;27;45372;-56
2021/09/07 03:33:00;;;;;;;;;16.50;15.25;;;;;24.05;45.88;101520.31;5086976;27;47592;-56
2021/09/07 03:35:26;;;;;;;;;11.50;11.00;;;;;24.03;46.10;101511.41;5081822;27;46154;-56
2021/09/07 03:37:52;;;;;;;;;14.00;13.00;;;;;24.04;45.97;101512.28;5062320;28;45358;-57
2021/09/07 03:40:17;;;;;;;;;14.75;13.25;;;;;24.02;46.12;101515.09;5068169;27;45436;-58
2021/09/07 03:42:43;;;;;;;;;16.00;13.50;;;;;23.99;45.70;101509.00;5080242;27;48240;-56
2021/09/07 03:45:12;;;;;;;;;13.00;12.00;;;;;23.94;46.24;101511.13;5062261;27;45292;-56
2021/09/07 03:47:41;;;;;;;;;14.00;14.00;;;;;23.91;46.03;101503.22;5080614;27;45607;-56
2021/09/07 03:50:08;;;;;;;;;15.50;15.50;;;;;23.89;46.12;101506.03;5080336;27;45678;-56
2021/09/07 03:52:34;;;;;;;;;14.75;13.50;;;;;23.87;45.81;101505.22;5062795;28;48634;-56
2021/09/07 03:55:00;;;;;;;;;13.25;12.75;;;;;23.84;46.40;101499.16;5079905;27;45978;-57
2021/09/07 03:57:26;;;;;;;;;14.50;11.75;;;;;23.83;46.26;101502.81;5088419;27;45680;-57
2021/09/07 03:59:52;;;;;;;;;13.00;13.00;;;;;23.82;46.48;101501.09;5081005;27;45384;-56
2021/09/07 04:02:17;;;;;;;;;12.25;12.00;;;;;23.83;46.41;101503.69;5074563;27;47360;-56
2021/09/07 04:04:43;;;;;;;;;14.50;12.00;;;;;23.82;46.56;101499.25;5078926;27;45632;-55
2021/09/07 04:07:08;;;;;;;;;14.25;14.00;;;;;23.82;46.62;101498.38;5067924;28;45521;-56
2021/09/07 04:09:34;;;;;;;;;15.50;13.75;;;;;23.83;46.42;101500.13;5080734;27;45353;-57
2021/09/07 04:11:59;;;;;;;;;15.25;15.25;;;;;23.82;46.50;101496.53;5080129;27;48425;-56
2021/09/07 04:14:25;;;;;;;;;17.75;17.50;;;;;23.80;46.56;101500.31;5075159;27;45845;-57
2021/09/07 04:16:50;;;;;;;;;13.75;13.75;;;;;23.78;46.57;101500.44;5078278;27;45727;-57
2021/09/07 04:19:16;;;;;;;;;22.00;18.75;;;;;23.77;46.47;101510.41;5083158;27;45525;-56
2021/09/07 04:21:41;;;;;;;;;9.25;8.75;;;;;23.76;46.66;101511.38;5079993;28;45297;-57
2021/09/07 04:24:07;;;;;;;;;17.25;13.75;;;;;23.77;46.88;101515.81;5079739;27;45294;-57
2021/09/07 04:26:33;;;;;;;;;14.50;14.00;;;;;23.76;46.63;101514.09;5076463;27;45429;-57
2021/09/07 04:28:59;;;;;;;;;17.25;12.50;;;;;23.74;46.25;101516.00;5074050;27;46293;-57
2021/09/07 04:31:24;;;;;;;;;14.75;14.00;;;;;23.71;46.84;101523.47;5062779;27;46552;-57
2021/09/07 04:33:50;;;;;;;;;19.25;17.00;;;;;23.67;46.61;101522.78;5078812;27;45824;-57
2021/09/07 04:36:16;;;;;;;;;14.50;13.75;;;;;23.67;47.15;101524.63;5078760;27;46954;-57
2021/09/07 04:38:41;;;;;;;;;17.25;17.00;;;;;23.67;47.01;101530.06;5078772;27;45405;-57
2021/09/07 04:41:07;;;;;;;;;15.75;13.75;;;;;23.67;46.98;101535.47;5079901;27;47294;-58
2021/09/07 04:43:33;;;;;;;;;9.50;9.00;;;;;23.66;46.93;101534.59;5070532;27;45987;-57
2021/09/07 04:45:58;;;;;;;;;15.25;14.50;;;;;23.66;46.89;101537.31;5084064;27;45714;-57
2021/09/07 04:48:24;;;;;;;;;15.50;15.50;;;;;23.65;47.14;101537.41;5078145;27;45506;-57
2021/09/07 04:50:49;;;;;;;;;13.25;13.25;;;;;23.64;47.16;101538.38;5076294;28;48174;-57
2021/09/07 04:53:15;;;;;;;;;16.25;14.50;;;;;23.62;47.18;101535.75;5074980;28;45326;-57
2021/09/07 04:55:40;;;;;;;;;17.00;17.00;;;;;23.61;47.11;101536.72;5063134;28;45697;-57
2021/09/07 04:58:06;;;;;;;;;15.25;15.25;;;;;23.60;47.25;101540.41;5056487;28;45571;-58
2021/09/07 05:00:32;;;;;;;;;15.50;15.50;;;;;23.60;47.29;101542.22;5074324;28;45480;-57
2021/09/07 05:02:57;;;;;;;;;18.00;17.00;;;;;23.58;47.25;101536.91;5077673;27;45350;-58
2021/09/07 05:05:23;;;;;;;;;13.00;13.00;;;;;23.57;47.18;101536.97;5067012;27;45434;-57
2021/09/07 05:07:49;;;;;;;;;17.00;15.75;;;;;23.51;47.20;101534.69;5073121;27;45466;-58
2021/09/07 05:10:15;;;;;;;;;17.75;16.25;;;;;23.40;47.70;101530.78;5087488;27;45948;-57
2021/09/07 05:12:40;;;;;;;;;15.00;15.00;;;;;23.36;47.42;101536.47;5077723;28;45565;-57
2021/09/07 05:15:07;;;;;;;;;19.50;17.00;;;;;23.36;47.94;101536.47;5080691;28;45672;-58
2021/09/07 05:17:33;;;;;;;;;18.00;17.00;;;;;23.35;47.87;101542.88;5060174;28;45690;-57
2021/09/07 05:19:59;;;;;;;;;17.00;16.50;;;;;23.33;47.80;101548.38;5068263;28;46443;-57
2021/09/07 05:22:25;;;;;;;;;20.50;18.75;;;;;23.32;47.79;101551.19;5073536;28;45382;-57
2021/09/07 05:24:51;;;;;;;;;22.00;19.50;;;;;23.27;47.67;101550.59;5069434;28;45434;-57
2021/09/07 05:27:16;;;;;;;;;20.75;17.50;;;;;23.22;47.98;101550.88;5081336;27;45878;-57
2021/09/07 05:29:42;;;;;;;;;15.25;15.00;;;;;23.17;48.24;101540.34;5078915;28;46834;-57
2021/09/07 05:32:10;;;;;;;;;20.00;19.50;;;;;23.17;48.64;101550.28;5091741;27;45287;-57
2021/09/07 05:34:36;;;;;;;;;16.00;16.00;;;;;23.19;48.85;101548.34;5073717;27;45464;-57
2021/09/07 05:37:02;;;;;;;;;20.25;19.00;;;;;23.21;48.38;101546.44;5078046;27;45457;-58
2021/09/07 05:39:27;;;;;;;;;19.75;19.75;;;;;23.23;48.71;101549.03;5059930;28;48085;-58
2021/09/07 05:41:53;;;;;;;;;20.50;18.75;;;;;23.24;48.71;101550.78;5078499;28;45416;-58
2021/09/07 05:44:19;;;;;;;;;17.25;17.25;;;;;23.25;48.46;101549.81;5083471;27;45406;-58
2021/09/07 05:46:45;;;;;;;;;15.25;15.25;;;;;23.26;48.45;101547.03;5078174;28;45445;-58
2021/09/07 05:49:11;;;;;;;;;20.75;20.75;;;;;23.29;48.65;101544.13;5075528;28;45651;-59
2021/09/07 05:51:36;;;;;;;;;17.25;16.25;;;;;23.34;48.60;101557.38;5075985;28;45345;-58
2021/09/07 05:54:02;;;;;;;;;22.50;20.75;;;;;23.36;48.32;101552.72;5078916;28;45356;-58
2021/09/07 05:56:28;;;;;;;;;20.50;19.00;;;;;23.38;48.75;101558.94;5083924;27;45412;-59
2021/09/07 05:58:56;;;;;;;;;16.50;16.00;;;;;23.44;48.43;101563.97;5054386;28;47155;-58
2021/09/07 06:01:21;;;;;;;;;19.50;19.00;;;;;23.45;48.72;101563.00;5078916;27;45656;-58
2021/09/07 06:03:47;;;;;;;;;18.50;18.50;;;;;23.48;48.75;101568.22;5078085;28;45824;-59
2021/09/07 06:06:13;;;;;;;;;26.25;24.00;;;;;23.49;48.26;101562.69;5077987;28;46754;-59
2021/09/07 06:08:38;;;;;;;;;35.00;31.75;;;;;23.53;48.26;101562.53;5078197;28;48218;-59
2021/09/07 06:11:04;;;;;;;;;33.75;30.50;;;;;23.56;48.67;101559.63;5078387;28;45761;-59
2021/09/07 06:13:31;;;;;;;;;63.50;51.50;;;;;23.58;48.71;101563.16;5060200;28;45454;-57
2021/09/07 06:15:57;;;;;;;;;64.25;52.50;;;;;23.62;48.94;101557.41;5078585;28;45527;-57
2021/09/07 06:18:23;;;;;;;;;113.00;108.67;;;;;23.64;48.70;101555.50;5079865;27;46657;-57
2021/09/07 06:20:48;;;;;;;;;78.00;72.25;;;;;23.65;48.86;101556.38;5043020;28;45691;-61
2021/09/07 06:23:14;;;;;;;;;53.75;45.50;;;;;23.66;48.58;101552.69;5080923;28;45456;-57
2021/09/07 06:25:40;;;;;;;;;44.25;37.00;;;;;23.68;48.73;101557.06;5081685;27;45425;-56
2021/09/07 06:28:05;;;;;;;;;34.75;32.75;;;;;23.68;48.61;101548.91;5081646;28;45714;-58
2021/09/07 06:30:31;;;;;;;;;30.25;27.50;;;;;23.69;48.54;101547.09;5080891;28;45431;-57
2021/09/07 06:32:57;;;;;;;;;32.25;29.50;;;;;23.70;48.75;101555.09;5081269;27;45360;-58
2021/09/07 06:35:23;;;;;;;;;24.25;24.00;;;;;23.73;48.57;101554.91;5081659;28;45553;-57
2021/09/07 06:37:48;;;;;;;;;25.50;24.25;;;;;23.74;48.48;101556.66;5078423;28;46614;-57
2021/09/07 06:40:14;;;;;;;;;27.00;25.25;;;;;23.76;48.65;101562.88;5072146;28;45332;-58
2021/09/07 06:42:40;;;;;;;;;29.25;26.00;;;;;23.77;48.49;101547.47;5081675;28;45362;-58
2021/09/07 06:45:06;;;;;;;;;26.75;25.50;;;;;23.78;48.42;101555.50;5063542;28;45371;-58
2021/09/07 06:47:32;;;;;;;;;26.75;25.00;;;;;23.80;48.53;101559.97;5063086;28;47741;-58
2021/09/07 06:50:00;;;;;;;;;25.75;21.50;;;;;23.80;48.39;101560.81;5081061;28;45816;-58
2021/09/07 06:52:27;;;;;;;;;28.00;26.00;;;;;23.83;48.39;101563.34;5081252;28;45298;-58
2021/09/07 06:54:52;;;;;;;;;23.00;21.75;;;;;23.85;48.36;101561.38;5066627;27;45452;-58
2021/09/07 06:57:18;;;;;;;;;23.25;21.00;;;;;23.88;48.12;101565.75;5085447;27;45527;-58
2021/09/07 06:59:43;;;;;;;;;24.00;24.00;;;;;23.89;48.28;101562.09;5081104;27;45704;-58
2021/09/07 07:02:09;;;;;;;;;23.25;22.25;;;;;23.92;48.01;101561.88;5062857;28;45815;-58
2021/09/07 07:04:34;;;;;;;;;22.75;22.00;;;;;23.93;48.31;101559.06;5081133;28;45285;-58
2021/09/07 07:07:00;;;;;;;;;24.00;24.00;;;;;23.96;48.01;101564.28;5080695;28;46043;-58
2021/09/07 07:09:25;;;;;;;;;21.50;19.50;;;;;23.97;48.23;101570.59;5089998;27;45231;-58
2021/09/07 07:11:51;;;;;;;;;23.50;22.25;;;;;23.99;48.25;101568.63;5062611;28;45924;-58
2021/09/07 07:14:20;;;;;;;;;22.75;21.75;;;;;24.01;48.12;101563.97;5081073;28;45604;-59
2021/09/07 07:16:46;;;;;;;;;27.25;27.25;;;;;24.03;47.94;101570.19;5046072;28;47326;-59
2021/09/07 07:19:11;;;;;;;;;29.75;28.00;;;;;24.04;47.88;101574.66;5085891;27;45496;-58
2021/09/07 07:21:37;;;;;;;;;23.75;22.25;;;;;24.01;47.99;101573.00;5080587;27;45354;-58
2021/09/07 07:24:03;;;;;;;;;23.00;23.00;;;;;24.02;48.17;101565.75;5062417;28;45833;-58
2021/09/07 07:26:28;;;;;;;;;20.00;19.75;;;;;24.01;47.87;101572.13;5080970;27;47099;-58
2021/09/07 07:28:53;;;;;;;;;25.75;24.00;;;;;23.96;47.49;101575.13;5079920;27;45393;-58
2021/09/07 07:31:19;;;;;;;;;27.25;25.00;;;;;23.94;47.42;101576.22;5062661;28;45654;-59
2021/09/07 07:33:44;;;;;;;;;55.75;46.00;;;;;23.90;48.31;101580.97;5060855;28;45252;-58
2021/09/07 07:36:10;;;;;;;;;34.25;30.75;;;;;23.88;48.08;101582.00;5062356;28;47053;-58
2021/09/07 07:38:36;;;;;;;;;32.50;29.00;;;;;23.87;47.84;101582.97;5080379;27;45324;-58
2021/09/07 07:41:02;;;;;;;;;23.25;23.00;;;;;23.88;48.12;101590.13;5080560;27;45347;-58
2021/09/07 07:43:30;;;;;;;;;23.00;23.00;;;;;23.92;48.29;101580.88;5080647;27;45361;-59
2021/09/07 07:45:55;;;;;;;;;29.75;27.25;;;;;23.93;47.73;101583.47;5079360;27;47144;-58
2021/09/07 07:48:22;;;;;;;;;22.50;21.50;;;;;23.93;48.10;101582.59;5080087;27;45421;-58
2021/09/07 07:50:47;;;;;;;;;23.00;22.00;;;;;23.94;48.10;101582.50;5062540;27;45416;-58
2021/09/07 07:53:12;;;;;;;;;26.25;22.00;;;;;23.97;47.83;101573.28;5070424;28;45501;-58
2021/09/07 07:55:38;;;;;;;;;22.75;22.75;;;;;23.99;47.85;101579.47;5081775;27;46824;-58
2021/09/07 07:58:05;;;;;;;;;22.25;20.75;;;;;24.03;47.94;101586.47;5063286;28;45460;-58
2021/09/07 08:00:30;;;;;;;;;22.50;22.50;;;;;24.07;47.42;101575.31;5082067;27;45256;-58
2021/09/07 08:02:56;;;;;;;;;23.25;22.75;;;;;24.10;47.93;101576.09;5082561;27;45350;-58
2021/09/07 08:05:22;;;;;;;;;22.50;20.50;;;;;24.13;47.76;101578.59;5063460;28;47160;-58
2021/09/07 08:07:47;;;;;;;;;25.00;23.50;;;;;24.16;47.92;101587.41;5082321;27;45317;-59
2021/09/07 08:10:13;;;;;;;;;28.50;25.50;;;;;24.20;47.49;101590.78;5089538;27;45373;-58
2021/09/07 08:12:38;;;;;;;;;23.25;20.75;;;;;24.23;47.39;101590.59;5079683;28;45619;-58
2021/09/07 08:15:04;;;;;;;;;20.50;19.25;;;;;24.28;47.53;101593.91;5078463;27;47099;-58
2021/09/07 08:17:30;;;;;;;;;25.50;23.25;;;;;24.32;47.39;101588.19;5077949;28;45431;-58
2021/09/07 08:19:55;;;;;;;;;25.25;23.25;;;;;24.37;47.26;101590.59;5065228;28;45424;-58
2021/09/07 08:22:22;;;;;;;;;21.00;19.75;;;;;24.42;47.44;101587.59;5081177;27;45651;-58
2021/09/07 08:24:49;;;;;;;;;24.25;24.25;;;;;24.47;47.34;101591.72;5079684;28;47503;-58
2021/09/07 08:27:15;;;;;;;;;20.50;20.50;;;;;24.50;47.40;101582.50;5060176;28;45429;-58
2021/09/07 08:29:41;;;;;;;;;20.00;17.50;;;;;24.52;47.07;101589.59;5079746;28;45527;-59
2021/09/07 08:32:07;;;;;;;;;23.75;21.25;;;;;24.56;46.83;101585.69;5088361;27;45690;-60
2021/09/07 08:34:32;;;;;;;;;20.75;20.75;;;;;24.61;47.35;101577.25;5079556;28;47441;-58
2021/09/07 08:36:58;;;;;;;;;20.00;20.00;;;;;24.64;47.00;101574.31;5079044;27;45504;-59
2021/09/07 08:39:23;;;;;;;;;21.00;19.25;;;;;24.67;46.98;101582.28;5079235;28;45409;-57
2021/09/07 08:41:49;;;;;;;;;23.00;21.25;;;;;24.72;47.15;101585.53;5061490;28;45514;-58
2021/09/07 08:44:18;;;;;;;;;23.75;23.75;;;;;24.76;46.99;101583.47;5079095;27;48155;-58
2021/09/07 08:46:44;;;;;;;;;23.75;20.50;;;;;24.79;46.98;101589.59;5060864;28;45683;-58
2021/09/07 08:49:16;;;;;;;;;19.75;19.75;;;;;24.83;46.65;101582.97;5061054;28;45377;-58
2021/09/07 08:51:42;;;;;;;;;20.00;19.00;;;;;24.87;46.41;101579.06;5079732;27;45350;-58
2021/09/07 08:54:08;;;;;;;;;17.25;17.25;;;;;24.91;46.46;101569.75;5078996;28;45701;-57
2021/09/07 08:56:33;;;;;;;;;18.50;17.75;;;;;24.97;46.53;101573.03;5079513;27;45601;-58
2021/09/07 08:58:59;;;;;;;;;21.25;21.00;;;;;25.01;46.36;101585.44;5079220;28;45431;-58
2021/09/07 09:01:25;;;;;;;;;23.25;23.25;;;;;25.05;46.10;101579.72;5061129;28;45551;-58
2021/09/07 09:03:51;;;;;;;;;17.00;17.00;;;;;25.10;46.42;101579.38;5059279;27;47994;-58
2021/09/07 09:06:24;;;;;;;;;15.50;14.25;;;;;25.13;45.51;101574.59;5078851;28;45718;-59
2021/09/07 09:09:04;;;;;;;;;21.75;19.50;;;;;25.17;45.66;101576.16;5084333;27;45291;-58
2021/09/07 09:11:49;;;;;;;;;17.25;17.00;;;;;25.21;45.39;101580.38;5061072;28;45518;-58
2021/09/07 09:14:32;;;;;;;;;20.25;18.50;;;;;25.25;45.91;101578.31;5078919;28;47362;-58
2021/09/07 09:16:58;;;;;;;;;17.75;17.00;;;;;25.29;45.61;101577.16;5078911;28;45799;-57
2021/09/07 09:19:23;;;;;;;;;16.50;15.25;;;;;25.33;45.47;101581.38;5078719;27;45458;-57
2021/09/07 09:21:49;;;;;;;;;15.75;14.25;;;;;25.37;44.75;101588.31;5079278;27;45484;-59
2021/09/07 09:24:20;;;;;;;;;14.00;13.25;;;;;25.41;44.63;101584.44;5078889;28;45354;-57
2021/09/07 09:27:04;;;;;;;;;16.75;13.25;;;;;25.45;44.62;101585.94;5078797;27;45513;-58
2021/09/07 09:29:36;;;;;;;;;13.25;11.75;;;;;25.48;44.14;101579.41;5079227;28;45399;-58
2021/09/07 09:32:04;;;;;;;;;15.75;15.75;;;;;25.50;44.20;101580.19;5078831;28;45704;-58
2021/09/07 09:34:31;;;;;;;;;17.25;16.00;;;;;25.55;44.35;101580.75;5059063;28;46976;-58
2021/09/07 09:37:03;;;;;;;;;13.50;13.50;;;;;25.58;43.81;101583.25;5078053;27;46455;-57
2021/09/07 09:39:47;;;;;;;;;14.50;14.50;;;;;25.61;44.33;101580.28;5075534;27;45813;-58
2021/09/07 09:42:28;;;;;;;;;13.75;13.25;;;;;25.66;43.10;101572.66;5078582;28;45482;-59
2021/09/07 09:45:01;;;;;;;;;15.50;13.50;;;;;25.68;43.48;101573.47;5078129;28;46903;-58
2021/09/07 09:47:34;;;;;;;;;16.00;16.00;;;;;25.72;42.89;101569.56;5078169;28;45455;-58
2021/09/07 09:50:01;;;;;;;;;14.75;13.50;;;;;25.75;43.30;101568.47;5060124;28;45390;-58
2021/09/07 09:52:28;;;;;;;;;15.00;14.00;;;;;25.79;43.07;101567.25;5043686;28;45390;-58
2021/09/07 09:54:55;;;;;;;;;14.75;14.75;;;;;25.82;42.85;101561.63;5063676;27;48831;-58
2021/09/07 09:57:21;;;;;;;;;17.00;14.75;;;;;25.85;42.59;101558.66;5085746;27;45456;-58
2021/09/07 09:59:48;;;;;;;;;16.75;15.75;;;;;25.89;42.39;101559.31;5047108;28;45437;-59
2021/09/07 10:02:14;;;;;;;;;13.00;11.75;;;;;25.91;42.15;101555.50;5063406;27;45373;-59
2021/09/07 10:04:40;;;;;;;;;10.00;10.00;;;;;25.95;42.37;101558.88;5081094;27;48617;-58
2021/09/07 10:07:07;;;;;;;;;13.50;13.50;;;;;25.98;42.58;101554.06;5082181;28;45463;-58
2021/09/07 10:09:32;;;;;;;;;13.50;13.50;;;;;26.02;42.74;101555.56;5056309;28;45625;-58
2021/09/07 10:12:09;;;;;;;;;12.25;10.25;;;;;26.06;42.31;101550.81;5064014;28;45560;-58
2021/09/07 10:14:38;;;;;;;;;11.00;11.00;;;;;26.09;42.56;101550.56;5081468;28;47244;-59
2021/09/07 10:17:41;;;;;;;;;11.75;11.75;;;;;26.14;42.47;101542.94;5062951;27;45416;-59
2021/09/07 10:23:12;;;;;;;;;15.75;14.75;;;;;26.20;42.03;101537.03;5082057;27;45632;-58
2021/09/07 10:25:49;;;;;;;;;14.00;14.00;;;;;26.23;41.31;101534.09;5081746;27;47330;-57
2021/09/07 10:28:33;;;;;;;;;14.75;13.75;;;;;26.26;41.43;101522.09;5081773;27;45384;-58
2021/09/07 10:31:13;;;;;;;;;12.00;12.00;;;;;26.29;41.08;101525.44;5081710;27;45679;-60
2021/09/07 10:33:44;;;;;;;;;15.75;12.50;;;;;26.32;41.06;101516.22;5081352;27;45343;-58
2021/09/07 10:36:15;;;;;;;;;14.00;13.75;;;;;26.35;40.83;101511.41;5081398;27;46873;-59
2021/09/07 10:38:45;;;;;;;;;13.25;12.50;;;;;26.39;40.67;101507.50;5061647;28;45554;-59
2021/09/07 10:41:33;;;;;;;;;17.25;16.00;;;;;26.43;40.99;101507.28;5081807;27;45312;-59
2021/09/07 10:44:06;;;;;;;;;14.00;14.00;;;;;26.44;40.51;101499.00;5063352;27;45484;-59
2021/09/07 10:46:58;;;;;;;;;15.75;13.75;;;;;26.48;40.27;101497.75;5081250;27;45323;-59
2021/09/07 10:49:43;;;;;;;;;15.50;12.75;;;;;26.51;40.49;101488.50;5078360;27;45503;-60
2021/09/07 10:52:25;;;;;;;;;17.00;16.25;;;;;26.54;40.56;101491.84;5056168;28;45423;-59
2021/09/07 10:55:09;;;;;;;;;11.25;11.25;;;;;26.57;40.39;101488.91;5084638;27;45444;-59
2021/09/07 10:57:35;;;;;;;;;13.75;13.75;;;;;26.62;40.10;101481.25;5083555;27;47541;-59
2021/09/07 11:00:21;;;;;;;;;13.50;13.50;;;;;26.65;40.14;101470.09;5081278;27;45806;-59
2021/09/07 11:02:53;;;;;;;;;13.50;13.50;;;;;26.69;40.11;101466.19;5062919;28;45442;-59
2021/09/07 11:05:24;;;;;;;;;13.00;12.00;;;;;26.74;40.56;101467.66;5081169;27;45614;-59
2021/09/07 11:08:12;;;;;;;;;16.25;14.75;;;;;26.77;40.06;101464.69;5084336;27;47144;-59
2021/09/07 11:10:41;;;;;;;;;16.50;16.00;;;;;26.79;40.30;101454.53;5081325;27;45604;-59
2021/09/07 11:13:18;;;;;;;;;13.75;13.75;;;;;26.80;39.98;101456.28;5080972;28;45342;-59